Time;durP1;ratioP1;P1;durP2;ratioP2;P2;SDS_P1;SDS_P2;PMS_P1;PMS_P2;Temp;Humidity;BMP_temperature;BMP_pressure;BME280_temperature;BME280_humidity;BME280_pressure;Samples;Min_cycle;Max_cycle;Signal;HPM_P1;HPM_P2
2022/04/22 00:01:18;;;;;;;0.30;0.30;;;8.80;73.60;;;;;;5055220;28;20260;-67
2022/04/22 00:03:43;;;;;;;0.30;0.30;;;8.70;73.90;;;;;;5055404;28;20645;-68
2022/04/22 00:06:10;;;;;;;0.30;0.30;;;8.70;74.70;;;;;;5055341;28;20188;-67
2022/04/22 00:08:36;;;;;;;0.30;0.30;;;8.60;74.40;;;;;;5054369;28;20444;-68
2022/04/22 00:13:45;;;;;;;2.22;1.02;;;8.50;76.10;;;;;;5055457;28;20563;-67
2022/04/22 00:16:11;;;;;;;0.30;0.30;;;8.40;77.20;;;;;;5055088;28;20235;-68
2022/04/22 00:18:37;;;;;;;0.30;0.30;;;8.30;77.70;;;;;;5054972;28;20242;-68
2022/04/22 00:21:03;;;;;;;0.30;0.30;;;8.40;77.90;;;;;;5054684;28;20165;-68
2022/04/22 00:23:29;;;;;;;0.30;0.30;;;8.30;78.70;;;;;;5055117;28;20177;-67
2022/04/22 00:25:55;;;;;;;0.30;0.30;;;8.30;78.10;;;;;;5055035;28;20245;-68
2022/04/22 00:28:21;;;;;;;0.30;0.30;;;8.30;78.40;;;;;;5054775;28;20486;-68
2022/04/22 00:30:47;;;;;;;0.40;0.40;;;8.40;78.60;;;;;;5054599;28;20187;-67
2022/04/22 00:33:15;;;;;;;0.40;0.40;;;8.10;79.40;;;;;;5054781;28;20177;-67
2022/04/22 00:35:41;;;;;;;2.13;1.92;;;8.20;80.00;;;;;;5054975;28;20280;-68
2022/04/22 00:38:07;;;;;;;0.40;0.40;;;8.10;80.80;;;;;;5054494;28;20260;-68
2022/04/22 00:40:33;;;;;;;0.30;0.30;;;8.00;81.70;;;;;;5054310;28;20171;-68
2022/04/22 00:43:12;;;;;;;0.30;0.30;;;8.00;82.20;;;;;;5054566;28;20558;-68
2022/04/22 00:45:37;;;;;;;0.40;0.40;;;8.00;82.00;;;;;;5054520;28;20180;-68
2022/04/22 00:48:03;;;;;;;1.27;1.27;;;8.00;81.90;;;;;;5054678;28;20662;-68
2022/04/22 00:50:30;;;;;;;0.30;0.30;;;7.90;81.80;;;;;;5054148;28;20536;-68
2022/04/22 00:52:55;;;;;;;0.40;0.40;;;7.90;83.20;;;;;;5054306;28;20407;-67
2022/04/22 00:55:21;;;;;;;1.63;1.53;;;7.90;82.80;;;;;;5054349;28;20230;-68
2022/04/22 00:57:47;;;;;;;0.30;0.30;;;7.90;81.80;;;;;;5054380;28;20243;-68
2022/04/22 01:00:13;;;;;;;0.30;0.30;;;7.90;82.50;;;;;;5053838;28;20427;-68
2022/04/22 01:02:39;;;;;;;0.40;0.40;;;8.00;81.50;;;;;;5054486;28;20583;-67
2022/04/22 01:10:33;;;;;;;0.40;0.40;;;7.80;81.80;;;;;;5053811;28;20171;-68
2022/04/22 01:12:59;;;;;;;0.30;0.30;;;7.90;81.30;;;;;;5052787;28;20185;-67
2022/04/22 01:15:25;;;;;;;0.40;0.40;;;8.10;81.00;;;;;;5053786;28;20211;-68
2022/04/22 01:17:50;;;;;;;0.40;0.40;;;8.10;80.30;;;;;;5053789;28;20632;-68
2022/04/22 01:20:17;;;;;;;0.40;0.40;;;8.10;81.00;;;;;;5052729;28;20303;-68
2022/04/22 01:22:43;;;;;;;0.30;0.30;;;8.10;81.90;;;;;;5053598;28;20193;-68
2022/04/22 01:25:08;;;;;;;0.40;0.40;;;8.00;82.10;;;;;;5054022;28;20176;-68
2022/04/22 01:27:37;;;;;;;0.30;0.30;;;7.90;83.60;;;;;;5053837;28;20447;-67
2022/04/22 01:30:06;;;;;;;0.40;0.40;;;7.80;83.90;;;;;;5053413;28;20192;-68
2022/04/22 01:32:31;;;;;;;0.40;0.40;;;7.60;84.40;;;;;;5053662;28;20705;-68
2022/04/22 01:34:57;;;;;;;0.30;0.30;;;7.70;84.50;;;;;;5052295;28;20235;-67
2022/04/22 01:37:23;;;;;;;0.30;0.30;;;7.50;85.50;;;;;;5053841;28;20421;-67
2022/04/22 01:39:49;;;;;;;0.80;0.80;;;7.40;86.00;;;;;;5053388;28;20425;-68
2022/04/22 01:42:15;;;;;;;0.40;0.40;;;7.20;87.40;;;;;;5053544;28;20263;-67
2022/04/22 01:44:40;;;;;;;0.40;0.40;;;7.20;87.90;;;;;;5053466;28;20178;-67
2022/04/22 01:47:07;;;;;;;0.30;0.30;;;7.20;87.80;;;;;;5053468;28;20233;-69
2022/04/22 01:49:32;;;;;;;0.30;0.30;;;7.20;87.50;;;;;;5053414;28;20195;-68
2022/04/22 01:51:58;;;;;;;0.30;0.30;;;7.30;87.70;;;;;;5053376;28;20516;-68
2022/04/22 01:54:24;;;;;;;0.40;0.40;;;7.30;87.60;;;;;;5053457;28;20206;-67
2022/04/22 01:56:50;;;;;;;0.30;0.30;;;7.30;88.50;;;;;;5051973;28;20182;-68
2022/04/22 01:59:16;;;;;;;0.40;0.40;;;7.30;88.80;;;;;;5053239;28;20568;-68
2022/04/22 02:01:41;;;;;;;0.30;0.30;;;7.20;89.40;;;;;;5053263;28;20951;-68
2022/04/22 02:04:07;;;;;;;0.40;0.40;;;7.20;89.20;;;;;;5053353;28;20761;-67
2022/04/22 02:06:33;;;;;;;2.00;1.90;;;7.20;89.40;;;;;;5053429;28;20212;-68
2022/04/22 02:08:58;;;;;;;0.30;0.30;;;7.10;90.00;;;;;;5053357;28;20229;-68
2022/04/22 02:11:24;;;;;;;0.40;0.40;;;7.00;90.20;;;;;;5053036;28;20175;-68
2022/04/22 02:13:50;;;;;;;0.53;0.53;;;7.00;90.50;;;;;;5053400;28;20172;-68
2022/04/22 02:16:15;;;;;;;0.30;0.30;;;7.10;90.40;;;;;;5053302;28;20190;-67
2022/04/22 02:18:42;;;;;;;0.30;0.30;;;6.90;90.30;;;;;;5053109;28;20194;-68
2022/04/22 02:21:09;;;;;;;9.57;2.25;;;7.00;90.80;;;;;;5052779;28;20183;-67
2022/04/22 02:23:35;;;;;;;0.73;0.73;;;7.10;90.30;;;;;;5053282;28;20179;-67
2022/04/22 02:26:02;;;;;;;0.30;0.30;;;7.00;89.80;;;;;;5053102;28;20647;-68
2022/04/22 02:28:34;;;;;;;0.40;0.40;;;7.10;90.10;;;;;;5052926;28;20209;-68
2022/04/22 02:31:06;;;;;;;0.40;0.40;;;7.10;90.20;;;;;;5053194;28;20174;-67
2022/04/22 02:33:32;;;;;;;0.30;0.30;;;7.30;90.00;;;;;;5056572;28;20198;-67
2022/04/22 02:35:59;;;;;;;0.40;0.40;;;7.30;89.90;;;;;;5056946;28;20198;-67
2022/04/22 02:38:29;;;;;;;0.30;0.30;;;7.40;89.80;;;;;;5056721;28;20297;-68
2022/04/22 02:46:24;;;;;;;0.40;0.40;;;7.50;88.50;;;;;;5056763;28;20198;-68
2022/04/22 02:48:51;;;;;;;0.30;0.30;;;7.50;88.80;;;;;;5056709;28;20304;-68
2022/04/22 02:51:17;;;;;;;0.30;0.30;;;7.50;89.00;;;;;;5056664;28;20536;-68
2022/04/22 02:53:44;;;;;;;0.30;0.30;;;7.50;88.70;;;;;;5056600;28;20192;-68
2022/04/22 02:56:10;;;;;;;0.30;0.30;;;7.60;87.90;;;;;;5056520;28;20280;-68
2022/04/22 02:58:36;;;;;;;0.30;0.30;;;7.50;88.30;;;;;;5056513;28;20196;-67
2022/04/22 03:01:03;;;;;;;0.30;0.30;;;7.50;88.10;;;;;;5056314;28;20538;-67
2022/04/22 03:03:29;;;;;;;0.30;0.30;;;7.20;89.00;;;;;;5056361;28;20176;-68
2022/04/22 03:05:55;;;;;;;0.30;0.30;;;7.20;90.00;;;;;;5056560;28;20530;-68
2022/04/22 03:08:20;;;;;;;0.60;0.60;;;7.20;90.30;;;;;;5056278;28;20186;-67
2022/04/22 03:10:48;;;;;;;0.30;0.30;;;7.20;90.30;;;;;;5056042;28;20230;-68
2022/04/22 03:13:17;;;;;;;0.40;0.40;;;7.30;90.50;;;;;;5055943;28;20177;-69
2022/04/22 03:15:43;;;;;;;0.30;0.30;;;7.30;90.40;;;;;;5054191;28;20614;-67
2022/04/22 03:18:11;;;;;;;0.40;0.40;;;7.30;90.40;;;;;;5056038;28;20163;-67
2022/04/22 03:20:37;;;;;;;0.85;0.85;;;7.20;90.60;;;;;;5056053;28;20199;-69
2022/04/22 03:23:09;;;;;;;0.30;0.30;;;7.20;90.30;;;;;;5056034;28;20233;-70
2022/04/22 03:25:35;;;;;;;0.30;0.30;;;7.30;93.10;;;;;;5056198;28;20199;-66
2022/04/22 03:28:03;;;;;;;0.30;0.30;;;8.10;96.90;;;;;;5056057;28;20213;-68
2022/04/22 03:30:29;;;;;;;0.40;0.40;;;9.20;93.80;;;;;;5053489;28;20197;-67
2022/04/22 03:32:55;;;;;;;0.30;0.30;;;10.20;90.80;;;;;;5054668;28;20209;-69
2022/04/22 03:35:20;;;;;;;1.63;0.70;;;11.10;85.40;;;;;;5055529;28;20560;-68
2022/04/22 03:37:46;;;;;;;0.30;0.30;;;11.90;80.20;;;;;;5053818;28;20253;-66
2022/04/22 03:40:12;;;;;;;0.30;0.30;;;12.50;76.50;;;;;;5055969;28;20277;-70
2022/04/22 03:42:37;;;;;;;0.30;0.30;;;12.90;72.50;;;;;;5056313;28;20194;-70
2022/04/22 03:45:06;;;;;;;0.53;0.53;;;13.30;68.80;;;;;;5054798;28;20411;-68
2022/04/22 03:47:32;;;;;;;0.30;0.30;;;13.60;66.60;;;;;;5055782;28;20170;-67
2022/04/22 03:49:58;;;;;;;0.30;0.30;;;13.90;65.60;;;;;;5055612;28;20446;-67
2022/04/22 03:52:23;;;;;;;0.40;0.40;;;14.10;65.00;;;;;;5056052;28;20622;-68
2022/04/22 03:54:49;;;;;;;0.40;0.40;;;14.20;60.00;;;;;;5052925;28;20190;-69
2022/04/22 03:59:59;;;;;;;1.45;1.40;;;11.90;59.40;;;;;;5055400;28;20197;-69
2022/04/22 04:02:24;;;;;;;0.30;0.30;;;10.80;63.20;;;;;;5054297;28;20170;-69
2022/04/22 04:04:50;;;;;;;0.30;0.30;;;9.90;68.30;;;;;;5055673;28;20181;-69
2022/04/22 04:07:16;;;;;;;0.30;0.30;;;9.10;72.80;;;;;;5055738;28;20166;-67
2022/04/22 04:17:54;;;;;;;0.30;0.30;;;7.90;87.50;;;;;;5055132;28;20277;-69
2022/04/22 04:23:17;;;;;;;0.30;0.30;;;7.60;90.40;;;;;;5054991;28;20264;-69
2022/04/22 04:25:44;;;;;;;0.32;0.32;;;7.50;90.90;;;;;;5054161;28;20180;-66
2022/04/22 04:28:11;;;;;;;1.13;1.02;;;7.30;91.30;;;;;;5053146;28;20173;-67
2022/04/22 04:30:37;;;;;;;0.30;0.30;;;7.30;91.60;;;;;;5055000;28;20181;-67
2022/04/22 04:33:04;;;;;;;0.30;0.30;;;7.30;91.80;;;;;;5054714;28;20176;-68
2022/04/22 04:35:30;;;;;;;0.30;0.30;;;7.30;92.10;;;;;;5054760;28;20556;-67
2022/04/22 04:37:55;;;;;;;0.30;0.30;;;7.20;92.20;;;;;;5055004;28;20168;-68
2022/04/22 04:40:21;;;;;;;0.40;0.40;;;7.10;91.70;;;;;;5054753;28;20157;-67
2022/04/22 04:42:47;;;;;;;0.30;0.30;;;7.00;91.90;;;;;;5055013;28;20649;-68
2022/04/22 04:45:12;;;;;;;0.30;0.30;;;7.00;92.30;;;;;;5054932;28;20239;-67
2022/04/22 04:47:40;;;;;;;0.37;0.37;;;7.20;92.70;;;;;;5054466;28;20168;-69
2022/04/22 04:50:06;;;;;;;0.30;0.30;;;7.20;92.60;;;;;;5054102;28;20205;-68
2022/04/22 04:52:33;;;;;;;0.30;0.30;;;7.20;93.00;;;;;;5052733;28;20579;-68
2022/04/22 04:54:59;;;;;;;0.43;0.43;;;7.20;93.00;;;;;;5052398;28;20279;-69
2022/04/22 04:57:24;;;;;;;0.40;0.40;;;7.20;93.30;;;;;;5054842;28;20621;-71
2022/04/22 04:59:50;;;;;;;2.17;2.00;;;7.30;93.60;;;;;;5053925;28;20730;-69
2022/04/22 05:02:16;;;;;;;0.30;0.30;;;7.40;93.70;;;;;;5054263;28;20165;-68
2022/04/22 05:04:42;;;;;;;0.53;0.53;;;7.40;93.20;;;;;;5053292;28;20260;-69
2022/04/22 05:07:07;;;;;;;0.60;0.60;;;7.50;93.00;;;;;;5052539;28;20279;-68
2022/04/22 05:09:33;;;;;;;0.40;0.40;;;7.50;92.70;;;;;;5053919;28;20220;-68
2022/04/22 05:11:59;;;;;;;0.30;0.30;;;7.60;92.80;;;;;;5053952;28;20632;-68
2022/04/22 05:14:26;;;;;;;0.30;0.30;;;7.60;93.00;;;;;;5054021;28;20169;-68
2022/04/22 05:16:54;;;;;;;0.38;0.38;;;8.00;95.30;;;;;;5051739;28;20204;-66
2022/04/22 05:19:21;;;;;;;1.17;1.10;;;8.70;92.50;;;;;;5051481;28;20538;-68
2022/04/22 05:21:47;;;;;;;0.30;0.30;;;9.00;90.00;;;;;;5051845;28;20287;-71
2022/04/22 05:24:13;;;;;;;0.30;0.30;;;9.00;88.70;;;;;;5050261;28;20185;-69
2022/04/22 05:26:39;;;;;;;0.30;0.30;;;9.20;89.60;;;;;;5052827;28;20631;-69
2022/04/22 05:32:36;;;;;;;0.30;0.30;;;9.90;87.60;;;;;;5054270;28;20511;-70
2022/04/22 05:34:34;;;;;;;0.40;0.40;;;11.80;79.50;;;;;;5053808;28;20509;-71
2022/04/22 05:37:00;;;;;;;0.30;0.30;;;12.70;76.20;;;;;;5053891;28;20403;-70
2022/04/22 05:39:26;;;;;;;0.77;0.77;;;13.50;71.40;;;;;;5053694;28;20226;-71
2022/04/22 05:41:51;;;;;;;1.60;1.60;;;14.10;66.60;;;;;;5051422;28;20189;-71
2022/04/22 05:44:17;;;;;;;0.30;0.30;;;14.80;65.30;;;;;;5053037;28;20241;-69
2022/04/22 05:46:43;;;;;;;0.30;0.30;;;15.60;62.40;;;;;;5052469;28;20173;-71
2022/04/22 05:49:08;;;;;;;0.30;0.30;;;15.70;59.00;;;;;;5053323;28;20537;-69
2022/04/22 05:51:34;;;;;;;0.50;0.50;;;16.40;57.80;;;;;;5053250;28;20177;-69
2022/04/22 05:53:59;;;;;;;2.30;2.20;;;16.90;55.70;;;;;;5053429;28;20171;-69
2022/04/22 05:56:25;;;;;;;0.60;0.60;;;17.30;54.10;;;;;;5053246;28;20248;-70
2022/04/22 05:58:52;;;;;;;1.77;1.70;;;17.60;53.80;;;;;;5053288;28;20193;-69
2022/04/22 06:01:17;;;;;;;0.40;0.40;;;17.80;52.90;;;;;;5053127;28;20171;-69
2022/04/22 06:03:43;;;;;;;0.40;0.40;;;17.90;51.40;;;;;;5053364;28;20402;-69
2022/04/22 06:06:08;;;;;;;1.00;0.73;;;17.50;51.90;;;;;;5053239;28;20253;-69
2022/04/22 06:11:18;;;;;;;0.30;0.30;;;18.10;51.00;;;;;;5055575;28;20664;-69
2022/04/22 06:13:47;;;;;;;0.40;0.40;;;18.80;50.70;;;;;;5056568;28;20408;-69
2022/04/22 06:16:13;;;;;;;0.40;0.40;;;19.40;48.80;;;;;;5057648;28;20544;-70
2022/04/22 06:18:39;;;;;;;0.30;0.30;;;18.90;49.70;;;;;;5057699;28;20440;-69
2022/04/22 06:21:04;;;;;;;0.40;0.40;;;18.80;49.50;;;;;;5057136;28;20854;-68
2022/04/22 06:23:30;;;;;;;0.40;0.40;;;18.70;48.50;;;;;;5057172;28;20197;-68
2022/04/22 06:25:55;;;;;;;0.67;0.67;;;18.60;49.30;;;;;;5057302;28;20174;-70
2022/04/22 06:28:21;;;;;;;0.30;0.30;;;19.20;49.40;;;;;;5057229;28;20186;-68
2022/04/22 06:30:48;;;;;;;0.37;0.37;;;19.10;48.50;;;;;;5057005;28;20166;-68
2022/04/22 06:33:14;;;;;;;1.00;0.80;;;19.10;49.00;;;;;;5057385;28;20257;-68
2022/04/22 06:35:40;;;;;;;0.30;0.30;;;19.60;48.00;;;;;;5056984;28;20452;-69
2022/04/22 06:38:08;;;;;;;0.70;0.70;;;19.80;47.40;;;;;;5056135;28;20404;-68
2022/04/22 06:46:03;;;;;;;0.57;0.57;;;19.50;47.20;;;;;;5055593;28;20445;-68
2022/04/22 06:48:31;;;;;;;0.37;0.37;;;17.20;50.30;;;;;;5054152;28;20928;-68
2022/04/22 06:50:59;;;;;;;0.60;0.60;;;15.90;52.20;;;;;;5057020;28;20396;-67
2022/04/22 06:53:25;;;;;;;0.37;0.37;;;15.80;54.50;;;;;;5056907;28;20404;-68
2022/04/22 06:55:53;;;;;;;0.30;0.30;;;16.30;53.90;;;;;;5056809;28;20455;-68
2022/04/22 06:58:19;;;;;;;0.30;0.30;;;16.80;52.60;;;;;;5056739;28;20475;-68
2022/04/22 07:00:46;;;;;;;0.50;0.50;;;17.20;52.30;;;;;;5056625;28;20404;-69
2022/04/22 07:03:14;;;;;;;0.40;0.40;;;17.90;52.40;;;;;;5056606;28;20744;-68
2022/04/22 07:05:41;;;;;;;1.13;0.70;;;18.00;52.30;;;;;;5056667;28;20442;-68
2022/04/22 07:08:11;;;;;;;0.50;0.50;;;18.10;50.90;;;;;;5056604;28;20877;-67
2022/04/22 07:10:37;;;;;;;1.33;0.80;;;17.70;51.60;;;;;;5056681;28;20772;-68
2022/04/22 07:13:04;;;;;;;0.47;0.47;;;18.90;49.80;;;;;;5056771;28;20414;-68
2022/04/22 07:15:30;;;;;;;1.00;1.00;;;19.80;49.40;;;;;;5055969;28;21103;-69
2022/04/22 07:17:56;;;;;;;0.60;0.60;;;20.90;46.70;;;;;;5056134;28;20401;-69
2022/04/22 07:20:23;;;;;;;1.30;1.30;;;21.10;45.80;;;;;;5054058;28;20190;-68
2022/04/22 07:22:49;;;;;;;0.40;0.40;;;21.00;44.60;;;;;;5054328;28;20494;-69
2022/04/22 07:25:15;;;;;;;0.60;0.60;;;21.40;44.50;;;;;;5054596;28;20453;-68
2022/04/22 07:27:43;;;;;;;0.40;0.40;;;21.50;44.60;;;;;;5056023;28;20455;-68
2022/04/22 07:30:11;;;;;;;1.47;1.37;;;21.50;45.80;;;;;;5054301;28;20981;-69
2022/04/22 07:32:41;;;;;;;0.30;0.30;;;21.40;46.20;;;;;;5055746;28;20391;-68
2022/04/22 07:35:14;;;;;;;0.30;0.30;;;22.20;43.50;;;;;;5055023;28;20438;-69
2022/04/22 07:37:50;;;;;;;2.30;1.00;;;23.40;42.40;;;;;;5053974;28;20897;-69
2022/04/22 07:40:19;;;;;;;0.40;0.40;;;24.40;41.60;;;;;;5055711;28;20432;-70
2022/04/22 07:48:20;;;;;;;0.40;0.40;;;25.30;38.60;;;;;;5054006;28;20459;-71
2022/04/22 07:50:47;;;;;;;0.40;0.37;;;25.60;38.70;;;;;;5055724;28;20413;-69
2022/04/22 07:53:15;;;;;;;0.50;0.50;;;26.70;36.30;;;;;;5055602;28;20404;-68
2022/04/22 07:55:41;;;;;;;0.30;0.30;;;26.30;35.70;;;;;;5055530;28;20456;-68
2022/04/22 07:58:06;;;;;;;0.50;0.50;;;25.00;37.40;;;;;;5055846;28;20762;-69
2022/04/22 08:00:32;;;;;;;3.33;3.13;;;25.00;37.10;;;;;;5055588;28;20415;-68
2022/04/22 08:02:58;;;;;;;1.43;0.80;;;25.10;37.50;;;;;;5055867;28;20173;-69
2022/04/22 08:05:24;;;;;;;1.60;1.50;;;24.80;37.40;;;;;;5055541;28;20174;-69
2022/04/22 08:07:49;;;;;;;0.80;0.80;;;24.90;37.60;;;;;;5055771;28;20519;-68
2022/04/22 08:10:15;;;;;;;0.80;0.80;;;25.10;38.10;;;;;;5055002;28;20307;-68
2022/04/22 08:12:41;;;;;;;0.80;0.80;;;25.00;37.50;;;;;;5055456;28;20170;-68
2022/04/22 08:15:08;;;;;;;1.40;0.93;;;26.10;36.50;;;;;;5055455;28;20196;-69
2022/04/22 08:17:37;;;;;;;0.60;0.60;;;25.90;35.20;;;;;;5055578;28;20401;-68
2022/04/22 08:20:07;;;;;;;0.70;0.50;;;25.10;36.70;;;;;;5053584;28;20864;-68
2022/04/22 08:22:33;;;;;;;0.50;0.50;;;24.00;38.90;;;;;;5054921;28;20447;-68
2022/04/22 08:25:00;;;;;;;1.80;0.93;;;24.00;37.40;;;;;;5055100;28;20492;-68
2022/04/22 08:27:26;;;;;;;3.13;1.40;;;24.50;37.10;;;;;;5055133;28;20436;-69
2022/04/22 08:29:53;;;;;;;1.67;1.60;;;25.50;36.50;;;;;;5054456;28;20485;-69
2022/04/22 08:32:19;;;;;;;0.53;0.53;;;26.50;35.60;;;;;;5055363;28;20404;-69
2022/04/22 08:34:46;;;;;;;0.43;0.43;;;26.90;33.50;;;;;;5054692;28;20883;-69
2022/04/22 08:37:12;;;;;;;0.70;0.70;;;26.10;34.80;;;;;;5054933;28;20458;-68
2022/04/22 08:39:37;;;;;;;0.73;0.70;;;25.40;35.60;;;;;;5054895;28;20917;-68
2022/04/22 08:42:04;;;;;;;0.30;0.30;;;24.60;36.80;;;;;;5054764;28;20193;-69
2022/04/22 08:44:35;;;;;;;1.00;0.80;;;24.80;36.80;;;;;;5054991;28;20170;-69
2022/04/22 08:49:59;;;;;;;0.30;0.30;;;25.50;36.70;;;;;;5054385;28;20463;-68
2022/04/22 08:52:31;;;;;;;0.50;0.50;;;26.00;36.10;;;;;;5054551;28;20526;-68
2022/04/22 08:54:58;;;;;;;1.93;0.83;;;26.10;34.60;;;;;;5054424;28;20489;-69
2022/04/22 08:57:24;;;;;;;6.53;1.53;;;25.10;35.60;;;;;;5054791;28;20401;-69
2022/04/22 08:59:50;;;;;;;0.80;0.80;;;25.50;36.10;;;;;;5054050;28;20436;-69
2022/04/22 09:02:19;;;;;;;0.83;0.83;;;26.60;35.00;;;;;;5054287;28;20412;-68
2022/04/22 09:04:48;;;;;;;0.30;0.30;;;27.70;33.30;;;;;;5054373;28;20182;-69
2022/04/22 09:07:14;;;;;;;0.73;0.73;;;28.60;32.60;;;;;;5054435;28;20412;-69
2022/04/22 09:09:40;;;;;;;1.83;0.60;;;29.00;32.40;;;;;;5054022;28;20884;-69
2022/04/22 09:12:12;;;;;;;0.30;0.30;;;28.00;31.50;;;;;;5053923;28;20408;-68
2022/04/22 09:14:49;;;;;;;0.40;0.40;;;27.70;32.20;;;;;;5054126;28;20459;-68
2022/04/22 09:17:17;;;;;;;1.73;1.63;;;28.10;32.70;;;;;;5054005;28;20415;-68
2022/04/22 09:19:46;;;;;;;0.50;0.50;;;28.60;32.30;;;;;;5053850;28;20797;-69
2022/04/22 09:22:18;;;;;;;0.40;0.40;;;28.80;31.70;;;;;;5053869;28;20501;-68
2022/04/22 09:25:00;;;;;;;0.60;0.60;;;28.70;30.60;;;;;;5050465;28;20502;-68
2022/04/22 09:27:33;;;;;;;1.10;0.60;;;28.80;30.80;;;;;;5052567;28;20784;-69
2022/04/22 09:30:00;;;;;;;0.90;0.90;;;29.30;31.30;;;;;;5053444;28;20463;-69
2022/04/22 09:32:28;;;;;;;1.47;0.60;;;29.40;31.00;;;;;;5053748;28;20405;-69
2022/04/22 09:35:06;;;;;;;1.33;1.23;;;28.70;31.60;;;;;;5053453;28;20460;-68
2022/04/22 09:43:00;;;;;;;1.30;1.00;;;29.30;31.10;;;;;;5050388;28;20771;-69
2022/04/22 09:45:41;;;;;;;0.60;0.60;;;30.20;29.70;;;;;;5053495;28;20408;-68
2022/04/22 09:48:18;;;;;;;1.80;1.70;;;30.50;29.20;;;;;;5052697;28;20205;-67
2022/04/22 09:50:52;;;;;;;0.50;0.50;;;27.10;31.40;;;;;;5051622;28;20420;-68
2022/04/22 09:53:19;;;;;;;0.40;0.40;;;26.60;33.30;;;;;;5053651;28;20503;-69
2022/04/22 09:55:48;;;;;;;0.83;0.83;;;26.90;33.00;;;;;;5052353;28;20471;-71
2022/04/22 09:58:25;;;;;;;0.30;0.30;;;27.50;33.00;;;;;;5051851;28;20400;-68
2022/04/22 10:00:57;;;;;;;0.30;0.30;;;27.60;31.10;;;;;;5053525;28;20432;-68
2022/04/22 10:03:25;;;;;;;0.87;0.87;;;26.80;31.30;;;;;;5051136;28;20420;-70
2022/04/22 10:05:53;;;;;;;0.40;0.40;;;26.50;32.00;;;;;;5052558;28;20496;-69
2022/04/22 10:08:21;;;;;;;0.70;0.70;;;26.00;32.70;;;;;;5053866;28;20451;-68
2022/04/22 10:10:47;;;;;;;0.30;0.30;;;25.50;33.70;;;;;;5051031;28;20431;-68
2022/04/22 10:13:17;;;;;;;0.30;0.30;;;25.50;34.70;;;;;;5052854;28;20427;-67
2022/04/22 10:15:45;;;;;;;0.60;0.60;;;25.70;33.40;;;;;;5053510;28;20794;-68
2022/04/22 10:18:13;;;;;;;0.40;0.40;;;25.40;33.70;;;;;;5051113;28;20390;-68
2022/04/22 10:20:40;;;;;;;0.60;0.60;;;25.40;33.30;;;;;;5052508;28;20404;-68
2022/04/22 10:23:06;;;;;;;0.50;0.47;;;24.90;35.10;;;;;;5053062;28;20478;-69
2022/04/22 10:25:33;;;;;;;0.30;0.30;;;24.50;36.10;;;;;;5050475;28;20409;-69
2022/04/22 10:28:03;;;;;;;0.33;0.33;;;24.30;35.70;;;;;;5052740;28;20499;-69
2022/04/22 10:30:29;;;;;;;0.30;0.30;;;23.90;37.10;;;;;;5052953;28;20815;-69
2022/04/22 10:32:56;;;;;;;0.40;0.40;;;23.50;36.70;;;;;;5050353;28;20440;-68
2022/04/22 10:35:23;;;;;;;0.40;0.40;;;22.30;38.40;;;;;;5052734;28;20819;-68
2022/04/22 10:37:50;;;;;;;0.83;0.83;;;21.70;39.20;;;;;;5052921;28;20399;-69
2022/04/22 10:40:23;;;;;;;0.30;0.30;;;21.30;39.50;;;;;;5050012;28;20433;-69
2022/04/22 10:42:51;;;;;;;5.73;1.50;;;21.20;41.30;;;;;;5053150;28;20741;-68
2022/04/22 10:48:27;;;;;;;0.40;0.30;;;19.80;42.10;;;;;;5051182;28;20443;-69
2022/04/22 10:51:03;;;;;;;0.30;0.30;;;20.00;41.40;;;;;;5053013;28;20486;-69
2022/04/22 10:53:39;;;;;;;0.70;0.70;;;20.70;42.00;;;;;;5054874;28;20772;-69
2022/04/22 10:56:26;;;;;;;0.93;0.93;;;21.20;40.20;;;;;;5056608;28;20488;-70
2022/04/22 10:59:20;;;;;;;0.30;0.30;;;21.10;41.20;;;;;;5056703;28;20417;-70
2022/04/22 11:01:46;;;;;;;0.30;0.30;;;20.80;40.10;;;;;;5056507;28;20480;-69
2022/04/22 11:04:24;;;;;;;0.30;0.30;;;20.00;41.40;;;;;;5056954;28;20419;-70
2022/04/22 11:06:50;;;;;;;0.40;0.40;;;19.70;42.70;;;;;;5056429;28;20436;-70
2022/04/22 11:09:31;;;;;;;2.40;2.30;;;19.90;42.30;;;;;;5056526;28;20752;-69
2022/04/22 11:11:58;;;;;;;0.30;0.30;;;20.10;41.80;;;;;;5056239;28;20412;-70
2022/04/22 11:14:25;;;;;;;1.03;1.03;;;20.50;41.00;;;;;;5056706;28;20423;-69
2022/04/22 11:16:52;;;;;;;0.30;0.30;;;20.80;41.00;;;;;;5056824;28;20520;-70
2022/04/22 11:19:18;;;;;;;0.50;0.50;;;20.70;41.00;;;;;;5056105;28;20437;-69
2022/04/22 11:21:45;;;;;;;0.97;0.97;;;21.00;41.60;;;;;;5056017;28;20432;-69
2022/04/22 11:24:20;;;;;;;0.60;0.60;;;20.70;41.20;;;;;;5056367;28;20162;-69
2022/04/22 11:26:46;;;;;;;0.40;0.40;;;20.50;41.70;;;;;;5054969;28;20416;-69
2022/04/22 11:29:13;;;;;;;0.30;0.30;;;20.40;41.80;;;;;;5056448;28;20840;-70
2022/04/22 11:31:39;;;;;;;0.40;0.40;;;20.10;42.00;;;;;;5055872;28;20415;-69
2022/04/22 11:34:15;;;;;;;0.33;0.33;;;19.60;42.10;;;;;;5056101;28;20412;-69
2022/04/22 11:36:48;;;;;;;13.70;0.87;;;19.30;43.20;;;;;;5055804;28;20453;-70
2022/04/22 11:39:22;;;;;;;1.07;1.07;;;19.40;42.80;;;;;;5056198;28;20464;-69
2022/04/22 11:41:57;;;;;;;0.30;0.30;;;19.30;43.20;;;;;;5054649;28;20413;-70
2022/04/22 11:44:27;;;;;;;1.07;1.07;;;19.50;44.20;;;;;;5054644;28;20404;-69
2022/04/22 11:46:54;;;;;;;0.60;0.50;;;19.30;44.10;;;;;;5053366;28;20412;-68
2022/04/22 11:49:20;;;;;;;0.30;0.30;;;19.00;45.60;;;;;;5054909;28;20427;-69
2022/04/22 11:51:53;;;;;;;0.30;0.30;;;19.20;44.80;;;;;;5053787;28;20408;-69
2022/04/22 11:54:25;;;;;;;0.50;0.50;;;19.50;46.00;;;;;;5054215;28;20499;-69
2022/04/22 11:56:52;;;;;;;0.30;0.30;;;19.40;45.40;;;;;;5054943;28;20487;-69
2022/04/22 11:59:23;;;;;;;0.60;0.60;;;19.30;45.80;;;;;;5055090;28;20434;-68
2022/04/22 12:10:06;;;;;;;0.67;0.67;;;19.50;46.80;;;;;;5055078;28;20423;-69
2022/04/22 12:12:31;;;;;;;0.30;0.30;;;19.50;46.30;;;;;;5055158;28;20400;-69
2022/04/22 12:15:05;;;;;;;2.73;0.90;;;19.50;46.70;;;;;;5054867;28;20458;-69
2022/04/22 12:17:31;;;;;;;0.30;0.30;;;19.80;46.60;;;;;;5055205;28;20443;-69
2022/04/22 12:19:57;;;;;;;0.30;0.30;;;19.90;46.60;;;;;;5053469;28;20444;-69
2022/04/22 12:22:24;;;;;;;0.30;0.30;;;20.00;46.80;;;;;;5054981;28;20196;-69
2022/04/22 12:25:08;;;;;;;0.60;0.60;;;20.00;46.10;;;;;;5054852;28;20400;-69
2022/04/22 12:27:34;;;;;;;0.40;0.40;;;19.70;46.50;;;;;;5054980;28;20490;-68
2022/04/22 12:30:10;;;;;;;0.30;0.30;;;19.80;46.00;;;;;;5054508;28;20507;-69
2022/04/22 12:32:41;;;;;;;0.30;0.30;;;19.20;45.60;;;;;;5054808;28;20251;-69
2022/04/22 12:35:13;;;;;;;0.30;0.30;;;18.90;47.10;;;;;;5054829;28;20452;-69
2022/04/22 12:37:46;;;;;;;0.30;0.30;;;18.90;47.80;;;;;;5054812;28;20972;-69
2022/04/22 12:40:14;;;;;;;0.30;0.30;;;18.70;49.50;;;;;;5054444;28;20428;-69
2022/04/22 12:42:40;;;;;;;0.40;0.40;;;18.50;48.90;;;;;;5054496;28;20754;-69
2022/04/22 12:53:33;;;;;;;0.30;0.30;;;18.70;47.80;;;;;;5054901;28;20552;-69
2022/04/22 12:56:03;;;;;;;0.40;0.40;;;19.10;47.10;;;;;;5054538;28;20819;-69
2022/04/22 12:58:29;;;;;;;0.30;0.30;;;19.40;46.50;;;;;;5054264;28;20927;-69
2022/04/22 13:00:56;;;;;;;0.70;0.70;;;19.50;45.30;;;;;;5053743;28;20407;-69
2022/04/22 13:03:21;;;;;;;0.57;0.57;;;19.60;47.10;;;;;;5054273;28;20412;-69
2022/04/22 13:05:48;;;;;;;0.50;0.50;;;19.70;45.80;;;;;;5054138;28;20494;-68
2022/04/22 13:08:15;;;;;;;0.40;0.40;;;19.70;45.30;;;;;;5053986;28;20400;-69
2022/04/22 13:10:41;;;;;;;0.47;0.47;;;19.60;44.70;;;;;;5053839;28;20406;-68
2022/04/22 13:13:08;;;;;;;0.30;0.30;;;19.50;45.30;;;;;;5053924;28;20417;-69
2022/04/22 13:15:33;;;;;;;0.50;0.50;;;19.40;45.50;;;;;;5053856;28;20809;-69
2022/04/22 13:17:59;;;;;;;0.80;0.80;;;19.10;45.20;;;;;;5053719;28;20404;-69
2022/04/22 13:20:25;;;;;;;0.30;0.30;;;19.30;45.50;;;;;;5053746;28;20400;-68
2022/04/22 13:22:50;;;;;;;0.30;0.30;;;19.20;45.50;;;;;;5053691;28;20564;-69
2022/04/22 13:25:17;;;;;;;0.30;0.30;;;19.20;45.50;;;;;;5053789;28;20636;-69
2022/04/22 13:27:44;;;;;;;0.43;0.43;;;19.30;44.80;;;;;;5053694;28;20235;-69
2022/04/22 13:30:10;;;;;;;0.70;0.70;;;19.40;45.30;;;;;;5053419;28;20772;-69
2022/04/22 13:32:36;;;;;;;0.60;0.60;;;19.50;46.80;;;;;;5053773;28;20420;-69
2022/04/22 13:35:05;;;;;;;0.40;0.40;;;19.40;47.90;;;;;;5053362;28;20456;-69
2022/04/22 13:37:32;;;;;;;0.30;0.30;;;19.10;49.20;;;;;;5053441;28;20408;-69
2022/04/22 13:39:57;;;;;;;0.30;0.30;;;18.90;50.50;;;;;;5053271;28;20420;-68
2022/04/22 13:42:23;;;;;;;0.40;0.40;;;18.80;50.20;;;;;;5052319;28;20413;-69
2022/04/22 13:53:01;;;;;;;5.03;4.37;;;18.50;51.10;;;;;;5053643;28;20396;-69
2022/04/22 13:55:34;;;;;;;0.83;0.83;;;18.60;51.70;;;;;;5053228;28;20448;-69
2022/04/22 13:58:00;;;;;;;0.30;0.30;;;18.60;51.20;;;;;;5053741;28;20397;-69
2022/04/22 14:00:26;;;;;;;0.77;0.77;;;18.40;51.40;;;;;;5053176;28;20415;-69
2022/04/22 14:02:52;;;;;;;0.40;0.40;;;18.30;51.70;;;;;;5053487;28;20196;-69
2022/04/22 14:05:21;;;;;;;0.30;0.30;;;18.10;51.90;;;;;;5053528;28;20927;-69
2022/04/22 14:07:48;;;;;;;1.13;1.13;;;18.00;52.10;;;;;;5053116;28;20182;-69
2022/04/22 14:10:15;;;;;;;0.60;0.60;;;18.10;52.10;;;;;;5052983;28;20417;-69
2022/04/22 14:12:41;;;;;;;0.30;0.30;;;18.30;52.10;;;;;;5053433;28;20400;-69